Nearby METAR Reports

 

KSJC - San Jose, California, USA
Distance from station: NE 9mi, 14km
Updated: 11/13/2019 4:53pm
Overcast
Overcast
 Wind from N
Wind: N 6 mph , 9 km/h
Temperature: 68°F , 20°C
Dew Point: 52°F , 11°C
Humidity: 56%
Barometer: 29.95 inHg , 1014.2 hPa
Clouds: Overcast
Visibility: 9 miles , 14 km
Cloud details: Few Clouds 100 ft
Mostly cloudy 8000 ft
Overcast 15000 ft
2019/11/13 21:53 KSJC 132153Z 36005KT 9SM FEW001 BKN080 OVC150 20/11 A2995 RMK AO2 SLP142 T02000106
KNUQ - Moffett Nas/Mtn, California, USA
Distance from station: N 9mi, 14km
Updated: 11/13/2019 4:56pm

 
Barometer: 29.96 inHg , 1014.6 hPa
2019/11/13 21:56 KNUQ 132156Z A2996 RMK AO2 SLP149 PWINO $
KPAO - Palo Alto, California, USA
Distance from station: NNW 14mi, 23km
Updated: 11/13/2019 4:47pm
Mostly cloudy
Mostly cloudy
 Wind from N
Wind: N 7 mph , 11 km/h
Temperature: 63°F , 17°C
Dew Point: 54°F , 12°C
Humidity: 73%
Barometer: 29.96 inHg , 1014.6 hPa
Clouds: Mostly cloudy
Visibility: 9 miles , 14 km
Cloud details: Mostly cloudy 10000 ft
2019/11/13 21:47 KPAO 132147Z 35006KT 9SM BKN100 17/12 A2996
 
KRHV - San Jose/Reid, California, USA
Distance from station: ENE 12mi, 19km
Updated: 11/13/2019 4:47pm
Mostly cloudy
Mostly cloudy
 Wind from calm
Wind: Calm
Temperature: 66°F , 19°C
Dew Point: 52°F , 11°C
Humidity: 60%
Barometer: 29.96 inHg , 1014.6 hPa
Clouds: Mostly cloudy
Visibility: 10 miles , 16 km
Cloud details: Mostly cloudy 7500 ft
2019/11/13 21:47 KRHV 132147Z 00000KT 10SM BKN075 19/11 A2996
KOAK - Oakland, California, USA
Distance from station: NNW 31mi, 50km
Updated: 11/13/2019 4:53pm
Overcast
Overcast
 Wind from WNW
Wind: WNW 10 mph , 17 km/h
Temperature: 61°F , 16°C
Dew Point: 52°F , 11°C
Humidity: 72%
Barometer: 29.96 inHg , 1014.6 hPa
Clouds: Overcast
Visibility: 9 miles , 14 km
Cloud details: Mostly cloudy 20000 ft
Overcast 25000 ft
2019/11/13 21:53 KOAK 132153Z 29009KT 9SM BKN200 OVC250 16/11 A2996 RMK AO2 SLP146 T01610106
KSQL - San Carlos Airpo, California, USA
Distance from station: NW 21mi, 34km
Updated: 11/13/2019 4:47pm
Haze, Mostly cloudy
Haze, Mostly cloudy
 Wind from N
Wind: N 7 mph , 11 km/h
Temperature: 59°F , 15°C
Dew Point: 54°F , 12°C
Humidity: 82%
Barometer: 29.97 inHg , 1014.9 hPa
Summary: Haze
Clouds: Mostly cloudy
Visibility: 5 miles , 8 km
Cloud details: Mostly cloudy 15000 ft
2019/11/13 21:47 KSQL 132147Z 36006KT 5SM HZ BKN150 15/12 A2997
 
KSFO - San Francisco, California, USA
Distance from station: NW 30mi, 49km
Updated: 11/13/2019 4:56pm
Mostly cloudy
Mostly cloudy
 Wind from NW
Wind: NW 9 mph , 15 km/h
Temperature: 61°F , 16°C
Dew Point: 50°F , 10°C
Humidity: 68%
Barometer: 29.96 inHg , 1014.6 hPa
Clouds: Mostly cloudy
Visibility: 8 miles , 13 km
Cloud details: Mostly cloudy 20000 ft
2019/11/13 21:56 KSFO 132156Z 31008KT 8SM BKN200 16/10 A2996 RMK AO2 SLP144 T01610100
KE16 - San Martin, California, USA
Distance from station: ESE 27mi, 43km
Updated: 11/13/2019 5:15pm
Clear
Clear
 Wind from SE
Wind: SE 8 mph , 13 km/h
Temperature: 72°F , 22°C
Dew Point: 48°F , 9°C
Humidity: 44%
Barometer: 29.97 inHg , 1014.9 hPa
Clouds: Clear
Visibility: 10 miles , 16 km
2019/11/13 22:15 KE16 132215Z AUTO 14007KT 10SM CLR 22/09 A2997 RMK AO2
KWVI - Watsonville, California, USA
Distance from station: SSE 27mi, 44km
Updated: 11/13/2019 5:05pm
Mostly cloudy
Mostly cloudy
 Wind from WSW
Wind: WSW 8 mph , 13 km/h
Temperature: 57°F , 14°C
Dew Point: 48°F , 9°C
Humidity: 72%
Barometer: 30.00 inHg , 1015.9 hPa
Clouds: Mostly cloudy
Visibility: 9 miles , 14 km
Cloud details: Mostly cloudy 1200 ft
2019/11/13 22:05 KWVI 132205Z AUTO 25007KT 9SM BKN012 14/09 A3000 RMK AO2 T01390094
 
KHAF - Half Moon Bay, California, USA
Distance from station: WNW 31mi, 50km
Updated: 11/13/2019 5:15pm
Mist, Overcast
Mist, Overcast
 Wind from SSE
Wind: SSE 5 mph , 7 km/h
Temperature: 54°F , 12°C
Dew Point: 50°F , 10°C
Humidity: 88%
Barometer: 30.01 inHg , 1016.3 hPa
Summary: Mist
Clouds: Overcast
Visibility: 5 miles , 8 km
Cloud details: Overcast 500 ft
2019/11/13 22:15 KHAF 132215Z AUTO 16004KT 5SM BR OVC005 12/10 A3001 RMK AO2
KHWD - Hayward, California, USA
Distance from station: N 28mi, 44km
Updated: 11/13/2019 4:54pm
Clear
Clear
 Wind from W
Wind: W 8 mph , 13 km/h
Temperature: 63°F , 17°C
Dew Point: 52°F , 11°C
Humidity: 68%
Barometer: 29.95 inHg , 1014.2 hPa
Clouds: Clear
Visibility: 8 miles , 13 km
2019/11/13 21:54 KHWD 132154Z 28007KT 8SM CLR 17/11 A2995 RMK AO2 SLP153 T01720111
KLVK - Livermore, California, USA
Distance from station: NNE 31mi, 51km
Updated: 11/13/2019 4:53pm
Clear
Clear
 Wind from calm
Wind: Calm
Temperature: 73°F , 23°C
Dew Point: 45°F , 7°C
Humidity: 36%
Barometer: 29.93 inHg , 1013.5 hPa
Clouds: Clear
Visibility: 9 miles , 14 km
2019/11/13 21:53 KLVK 132153Z 00000KT 9SM CLR 23/07 A2993 RMK AO2 SLP133 T02330067